sensor_id;sensor_type;location;lat;lon;timestamp;pressure;altitude;pressure_sealevel;temperature;humidity
32456;BME280;18912;43.270;27.942;2022-11-20T00:00:47;97840.06;;;19.53;93.47
32456;BME280;18912;43.270;27.942;2022-11-20T00:03:13;97834.25;;;19.35;93.90
32456;BME280;18912;43.270;27.942;2022-11-20T00:05:38;97832.94;;;19.58;93.13
32456;BME280;18912;43.270;27.942;2022-11-20T00:08:04;97819.16;;;19.32;95.17
32456;BME280;18912;43.270;27.942;2022-11-20T00:10:29;97819.47;;;19.51;94.17
32456;BME280;18912;43.270;27.942;2022-11-20T00:12:55;97821.94;;;19.42;93.78
32456;BME280;18912;43.270;27.942;2022-11-20T00:15:22;97820.56;;;19.35;95.41
32456;BME280;18912;43.270;27.942;2022-11-20T00:17:47;97807.13;;;19.43;95.68
32456;BME280;18912;43.270;27.942;2022-11-20T00:20:13;97810.19;;;19.47;94.59
32456;BME280;18912;43.270;27.942;2022-11-20T00:22:39;97813.72;;;19.47;94.46
32456;BME280;18912;43.270;27.942;2022-11-20T00:25:04;97820.59;;;19.55;94.38
32456;BME280;18912;43.270;27.942;2022-11-20T00:27:30;97825.81;;;19.62;93.52
32456;BME280;18912;43.270;27.942;2022-11-20T00:29:55;97833.22;;;19.71;92.90
32456;BME280;18912;43.270;27.942;2022-11-20T00:32:21;97831.81;;;19.58;93.72
32456;BME280;18912;43.270;27.942;2022-11-20T00:34:46;97833.78;;;19.83;92.11
32456;BME280;18912;43.270;27.942;2022-11-20T00:37:12;97830.50;;;19.81;92.49
32456;BME280;18912;43.270;27.942;2022-11-20T00:39:37;97838.72;;;19.76;91.78
32456;BME280;18912;43.270;27.942;2022-11-20T00:42:03;97831.06;;;19.98;90.81
32456;BME280;18912;43.270;27.942;2022-11-20T00:44:28;97811.84;;;19.93;90.20
32456;BME280;18912;43.270;27.942;2022-11-20T00:46:54;97829.13;;;19.79;92.00
32456;BME280;18912;43.270;27.942;2022-11-20T00:49:19;97833.28;;;19.96;90.20
32456;BME280;18912;43.270;27.942;2022-11-20T00:51:45;97827.22;;;19.94;89.95
32456;BME280;18912;43.270;27.942;2022-11-20T00:54:10;97818.44;;;19.87;89.97
32456;BME280;18912;43.270;27.942;2022-11-20T00:56:36;97827.19;;;19.89;90.53
32456;BME280;18912;43.270;27.942;2022-11-20T00:59:01;97831.31;;;19.62;92.82
32456;BME280;18912;43.270;27.942;2022-11-20T01:01:27;97825.53;;;19.68;91.50
32456;BME280;18912;43.270;27.942;2022-11-20T01:03:55;97837.34;;;19.69;91.66
32456;BME280;18912;43.270;27.942;2022-11-20T01:06:26;97831.56;;;19.65;92.22
32456;BME280;18912;43.270;27.942;2022-11-20T01:08:56;97829.41;;;19.82;91.78
32456;BME280;18912;43.270;27.942;2022-11-20T01:11:33;97837.59;;;19.52;93.36
32456;BME280;18912;43.270;27.942;2022-11-20T01:14:00;97840.06;;;19.74;92.51
32456;BME280;18912;43.270;27.942;2022-11-20T01:16:38;97838.72;;;19.91;91.20
32456;BME280;18912;43.270;27.942;2022-11-20T01:19:06;97830.78;;;20.00;90.68
32456;BME280;18912;43.270;27.942;2022-11-20T01:21:34;97832.97;;;19.93;91.01
32456;BME280;18912;43.270;27.942;2022-11-20T01:24:01;97826.09;;;19.85;91.30
32456;BME280;18912;43.270;27.942;2022-11-20T01:26:30;97823.34;;;19.70;92.60
32456;BME280;18912;43.270;27.942;2022-11-20T01:28:56;97828.06;;;20.00;91.01
32456;BME280;18912;43.270;27.942;2022-11-20T01:31:28;97825.28;;;19.95;90.19
32456;BME280;18912;43.270;27.942;2022-11-20T01:33:56;97818.44;;;19.82;91.07
32456;BME280;18912;43.270;27.942;2022-11-20T01:36:24;97829.13;;;19.94;90.97
32456;BME280;18912;43.270;27.942;2022-11-20T01:38:54;97829.41;;;20.12;89.62
32456;BME280;18912;43.270;27.942;2022-11-20T01:41:20;97824.78;;;20.38;87.83
32456;BME280;18912;43.270;27.942;2022-11-20T01:44:04;97812.13;;;20.27;88.28
32456;BME280;18912;43.270;27.942;2022-11-20T01:46:32;97820.88;;;20.44;87.33
32456;BME280;18912;43.270;27.942;2022-11-20T01:49:08;97815.16;;;20.15;88.37
32456;BME280;18912;43.270;27.942;2022-11-20T01:51:42;97823.09;;;20.12;89.00
32456;BME280;18912;43.270;27.942;2022-11-20T01:54:14;97826.94;;;20.11;89.25
32456;BME280;18912;43.270;27.942;2022-11-20T01:56:43;97833.53;;;20.15;88.81
32456;BME280;18912;43.270;27.942;2022-11-20T01:59:10;97830.00;;;20.24;89.05
32456;BME280;18912;43.270;27.942;2022-11-20T02:01:38;97833.25;;;20.36;88.51
32456;BME280;18912;43.270;27.942;2022-11-20T02:04:05;97817.91;;;20.25;89.06
32456;BME280;18912;43.270;27.942;2022-11-20T02:06:40;97809.09;;;20.48;87.14
32456;BME280;18912;43.270;27.942;2022-11-20T02:09:07;97811.34;;;20.26;88.35
32456;BME280;18912;43.270;27.942;2022-11-20T02:11:33;97808.00;;;20.34;88.07
32456;BME280;18912;43.270;27.942;2022-11-20T02:13:59;97808.56;;;20.21;88.17
32456;BME280;18912;43.270;27.942;2022-11-20T02:18:51;97809.13;;;20.18;88.91
32456;BME280;18912;43.270;27.942;2022-11-20T02:24:01;97816.78;;;20.16;88.58
32456;BME280;18912;43.270;27.942;2022-11-20T02:26:30;97808.00;;;20.39;87.27
32456;BME280;18912;43.270;27.942;2022-11-20T02:28:56;97811.06;;;20.28;87.83
32456;BME280;18912;43.270;27.942;2022-11-20T02:31:23;97815.16;;;20.35;87.23
32456;BME280;18912;43.270;27.942;2022-11-20T02:33:57;97806.38;;;20.33;87.26
32456;BME280;18912;43.270;27.942;2022-11-20T02:36:24;97806.38;;;20.43;86.43
32456;BME280;18912;43.270;27.942;2022-11-20T02:38:51;97800.34;;;20.31;86.71
32456;BME280;18912;43.270;27.942;2022-11-20T02:41:17;97787.72;;;20.30;87.15
32456;BME280;18912;43.270;27.942;2022-11-20T02:43:42;97792.94;;;20.22;87.53
32456;BME280;18912;43.270;27.942;2022-11-20T02:46:08;97787.69;;;20.10;88.19
32456;BME280;18912;43.270;27.942;2022-11-20T02:48:34;97791.84;;;20.23;87.71
32456;BME280;18912;43.270;27.942;2022-11-20T02:51:00;97797.03;;;20.04;88.69
32456;BME280;18912;43.270;27.942;2022-11-20T02:53:25;97782.22;;;20.05;88.70
32456;BME280;18912;43.270;27.942;2022-11-20T02:55:51;97758.06;;;20.02;88.61
32456;BME280;18912;43.270;27.942;2022-11-20T02:58:16;97767.41;;;20.01;88.77
32456;BME280;18912;43.270;27.942;2022-11-20T03:00:42;97764.13;;;20.09;88.76
32456;BME280;18912;43.270;27.942;2022-11-20T03:03:07;97764.09;;;20.14;88.12
32456;BME280;18912;43.270;27.942;2022-11-20T03:05:32;97767.97;;;20.03;88.41
32456;BME280;18912;43.270;27.942;2022-11-20T03:07:58;97774.53;;;20.37;87.11
32456;BME280;18912;43.270;27.942;2022-11-20T03:10:24;97775.34;;;20.33;87.11
32456;BME280;18912;43.270;27.942;2022-11-20T03:12:54;97780.03;;;20.37;86.99
32456;BME280;18912;43.270;27.942;2022-11-20T03:15:21;97769.03;;;20.37;86.34
32456;BME280;18912;43.270;27.942;2022-11-20T03:17:46;97772.88;;;20.36;86.84
32456;BME280;18912;43.270;27.942;2022-11-20T03:20:12;97779.19;;;20.37;86.45
32456;BME280;18912;43.270;27.942;2022-11-20T03:22:37;97777.84;;;20.29;86.85
32456;BME280;18912;43.270;27.942;2022-11-20T03:25:03;97777.81;;;20.39;86.62
32456;BME280;18912;43.270;27.942;2022-11-20T03:27:32;97765.22;;;20.28;86.80
32456;BME280;18912;43.270;27.942;2022-11-20T03:29:58;97769.63;;;20.24;87.29
32456;BME280;18912;43.270;27.942;2022-11-20T03:32:24;97765.78;;;20.20;87.35
32456;BME280;18912;43.270;27.942;2022-11-20T03:34:49;97755.91;;;19.94;89.37
32456;BME280;18912;43.270;27.942;2022-11-20T03:37:14;97745.47;;;20.01;88.91
32456;BME280;18912;43.270;27.942;2022-11-20T03:39:40;97745.75;;;20.00;88.68
32456;BME280;18912;43.270;27.942;2022-11-20T03:42:05;97749.31;;;19.95;88.80
32456;BME280;18912;43.270;27.942;2022-11-20T03:44:51;97736.97;;;20.18;87.06
32456;BME280;18912;43.270;27.942;2022-11-20T03:47:16;97739.41;;;20.04;88.24
32456;BME280;18912;43.270;27.942;2022-11-20T03:49:42;97731.19;;;20.09;87.42
32456;BME280;18912;43.270;27.942;2022-11-20T03:52:07;97727.66;;;19.89;87.90
32456;BME280;18912;43.270;27.942;2022-11-20T03:54:32;97727.09;;;19.92;87.96
32456;BME280;18912;43.270;27.942;2022-11-20T03:56:58;97734.47;;;20.06;87.57
32456;BME280;18912;43.270;27.942;2022-11-20T03:59:23;97736.41;;;20.06;87.12
32456;BME280;18912;43.270;27.942;2022-11-20T04:01:49;97730.09;;;20.05;87.06
32456;BME280;18912;43.270;27.942;2022-11-20T04:04:14;97724.09;;;19.98;87.02
32456;BME280;18912;43.270;27.942;2022-11-20T04:06:40;97714.22;;;19.92;87.08
32456;BME280;18912;43.270;27.942;2022-11-20T04:09:06;97713.09;;;19.83;87.84
32456;BME280;18912;43.270;27.942;2022-11-20T04:11:33;97713.66;;;19.80;87.96
32456;BME280;18912;43.270;27.942;2022-11-20T04:14:02;97711.97;;;20.04;86.32
32456;BME280;18912;43.270;27.942;2022-11-20T04:16:33;97703.47;;;20.01;86.46
32456;BME280;18912;43.270;27.942;2022-11-20T04:19:00;97703.22;;;19.97;86.35
32456;BME280;18912;43.270;27.942;2022-11-20T04:21:27;97702.66;;;20.05;85.52
32456;BME280;18912;43.270;27.942;2022-11-20T04:23:53;97711.97;;;20.04;85.88
32456;BME280;18912;43.270;27.942;2022-11-20T04:26:19;97706.50;;;20.19;84.93
32456;BME280;18912;43.270;27.942;2022-11-20T04:28:45;97704.84;;;20.08;85.16
32456;BME280;18912;43.270;27.942;2022-11-20T04:31:16;97697.97;;;20.16;84.77
32456;BME280;18912;43.270;27.942;2022-11-20T04:33:42;97714.72;;;20.04;85.64
32456;BME280;18912;43.270;27.942;2022-11-20T04:36:23;97716.13;;;20.02;85.95
32456;BME280;18912;43.270;27.942;2022-11-20T04:38:53;97710.66;;;19.87;86.40
32456;BME280;18912;43.270;27.942;2022-11-20T04:41:21;97710.63;;;19.97;86.18
32456;BME280;18912;43.270;27.942;2022-11-20T04:43:51;97713.09;;;19.83;87.14
32456;BME280;18912;43.270;27.942;2022-11-20T04:46:18;97713.13;;;19.88;86.34
32456;BME280;18912;43.270;27.942;2022-11-20T04:48:44;97713.09;;;19.83;87.02
32456;BME280;18912;43.270;27.942;2022-11-20T04:51:10;97711.75;;;19.71;87.72
32456;BME280;18912;43.270;27.942;2022-11-20T04:53:35;97716.41;;;19.85;86.98
32456;BME280;18912;43.270;27.942;2022-11-20T04:56:05;97704.34;;;19.71;87.57
32456;BME280;18912;43.270;27.942;2022-11-20T04:58:32;97706.53;;;19.69;87.26
32456;BME280;18912;43.270;27.942;2022-11-20T05:03:27;97692.03;;;19.64;87.66
32456;BME280;18912;43.270;27.942;2022-11-20T05:05:53;97706.00;;;19.57;88.32
32456;BME280;18912;43.270;27.942;2022-11-20T05:08:18;97703.81;;;19.64;87.68
32456;BME280;18912;43.270;27.942;2022-11-20T05:10:43;97713.13;;;19.63;87.27
32456;BME280;18912;43.270;27.942;2022-11-20T05:13:09;97714.75;;;19.74;86.95
32456;BME280;18912;43.270;27.942;2022-11-20T05:15:34;97715.59;;;19.75;87.00
32456;BME280;18912;43.270;27.942;2022-11-20T05:18:00;97723.00;;;19.79;86.76
32456;BME280;18912;43.270;27.942;2022-11-20T05:20:25;97730.91;;;20.01;85.19
32456;BME280;18912;43.270;27.942;2022-11-20T05:22:50;97715.06;;;19.68;86.18
32456;BME280;18912;43.270;27.942;2022-11-20T05:25:16;97711.47;;;19.82;86.05
32456;BME280;18912;43.270;27.942;2022-11-20T05:27:41;97701.31;;;19.88;85.67
32456;BME280;18912;43.270;27.942;2022-11-20T05:30:08;97707.63;;;19.78;85.91
32456;BME280;18912;43.270;27.942;2022-11-20T05:32:34;97701.88;;;19.85;85.91
32456;BME280;18912;43.270;27.942;2022-11-20T05:34:59;97696.13;;;19.86;85.31
32456;BME280;18912;43.270;27.942;2022-11-20T05:37:25;97706.53;;;19.69;86.48
32456;BME280;18912;43.270;27.942;2022-11-20T05:39:50;97718.59;;;19.53;87.28
32456;BME280;18912;43.270;27.942;2022-11-20T05:42:16;97721.06;;;19.75;86.02
32456;BME280;18912;43.270;27.942;2022-11-20T05:45:01;97729.31;;;19.70;86.59
32456;BME280;18912;43.270;27.942;2022-11-20T05:47:30;97719.72;;;19.77;86.07
32456;BME280;18912;43.270;27.942;2022-11-20T05:49:56;97727.13;;;19.62;87.14
32456;BME280;18912;43.270;27.942;2022-11-20T05:52:22;97722.72;;;19.61;86.79
32456;BME280;18912;43.270;27.942;2022-11-20T05:54:47;97726.03;;;19.52;86.89
32456;BME280;18912;43.270;27.942;2022-11-20T05:57:13;97730.66;;;19.92;85.26
32456;BME280;18912;43.270;27.942;2022-11-20T05:59:38;97751.78;;;19.82;85.51
32456;BME280;18912;43.270;27.942;2022-11-20T06:02:04;97731.22;;;19.79;85.56
32456;BME280;18912;43.270;27.942;2022-11-20T06:04:29;97726.28;;;19.86;85.41
32456;BME280;18912;43.270;27.942;2022-11-20T06:06:54;97740.00;;;19.76;85.40
32456;BME280;18912;43.270;27.942;2022-11-20T06:09:20;97734.75;;;20.25;83.83
32456;BME280;18912;43.270;27.942;2022-11-20T06:11:45;97735.25;;;20.47;81.47
32456;BME280;18912;43.270;27.942;2022-11-20T06:14:11;97747.06;;;20.37;81.36
32456;BME280;18912;43.270;27.942;2022-11-20T06:16:36;97745.44;;;20.21;83.15
32456;BME280;18912;43.270;27.942;2022-11-20T06:19:02;97742.16;;;20.04;83.50
32456;BME280;18912;43.270;27.942;2022-11-20T06:21:27;97733.38;;;20.02;83.14
32456;BME280;18912;43.270;27.942;2022-11-20T06:23:53;97750.94;;;20.06;83.99
32456;BME280;18912;43.270;27.942;2022-11-20T06:26:21;97746.00;;;20.03;83.73
32456;BME280;18912;43.270;27.942;2022-11-20T06:28:47;97743.53;;;20.12;82.64
32456;BME280;18912;43.270;27.942;2022-11-20T06:31:15;97745.47;;;20.26;82.50
32456;BME280;18912;43.270;27.942;2022-11-20T06:33:41;97747.38;;;20.11;83.29
32456;BME280;18912;43.270;27.942;2022-11-20T06:36:07;97743.25;;;20.28;82.21
32456;BME280;18912;43.270;27.942;2022-11-20T06:38:32;97737.78;;;20.23;82.10
32456;BME280;18912;43.270;27.942;2022-11-20T06:40:58;97745.41;;;20.36;81.60
32456;BME280;18912;43.270;27.942;2022-11-20T06:43:24;97746.00;;;20.33;81.60
32456;BME280;18912;43.270;27.942;2022-11-20T06:45:54;97749.53;;;20.39;81.27
32456;BME280;18912;43.270;27.942;2022-11-20T06:48:20;97755.81;;;20.55;81.04
32456;BME280;18912;43.270;27.942;2022-11-20T06:50:46;97755.84;;;20.50;81.15
32456;BME280;18912;43.270;27.942;2022-11-20T06:53:11;97751.72;;;20.47;80.69
32456;BME280;18912;43.270;27.942;2022-11-20T06:55:37;97755.25;;;20.58;79.84
32456;BME280;18912;43.270;27.942;2022-11-20T06:58:06;97755.25;;;20.63;79.88
32456;BME280;18912;43.270;27.942;2022-11-20T07:00:32;97752.50;;;20.58;79.37
32456;BME280;18912;43.270;27.942;2022-11-20T07:02:57;97742.59;;;20.62;79.56
32456;BME280;18912;43.270;27.942;2022-11-20T07:05:23;97749.09;;;20.86;78.37
32456;BME280;18912;43.270;27.942;2022-11-20T07:07:48;97754.81;;;21.04;77.85
32456;BME280;18912;43.270;27.942;2022-11-20T07:10:14;97768.28;;;20.96;77.52
32456;BME280;18912;43.270;27.942;2022-11-20T07:12:39;97751.75;;;21.11;77.25
32456;BME280;18912;43.270;27.942;2022-11-20T07:15:05;97748.41;;;21.19;76.88
32456;BME280;18912;43.270;27.942;2022-11-20T07:17:31;97779.31;;;20.91;77.23
32456;BME280;18912;43.270;27.942;2022-11-20T07:19:56;97764.16;;;21.03;77.34
32456;BME280;18912;43.270;27.942;2022-11-20T07:22:22;97772.66;;;21.12;76.78
32456;BME280;18912;43.270;27.942;2022-11-20T07:24:47;97774.31;;;21.03;77.19
32456;BME280;18912;43.270;27.942;2022-11-20T07:27:13;97764.44;;;20.92;77.42
32456;BME280;18912;43.270;27.942;2022-11-20T07:29:39;97757.09;;;20.77;77.91
32456;BME280;18912;43.270;27.942;2022-11-20T07:32:04;97764.94;;;21.09;77.00
32456;BME280;18912;43.270;27.942;2022-11-20T07:34:30;97770.78;;;20.92;77.03
32456;BME280;18912;43.270;27.942;2022-11-20T07:36:55;97773.16;;;21.19;76.34
32456;BME280;18912;43.270;27.942;2022-11-20T07:39:21;97762.94;;;21.24;75.90
32456;BME280;18912;43.270;27.942;2022-11-20T07:41:46;97766.59;;;21.10;76.88
32456;BME280;18912;43.270;27.942;2022-11-20T07:44:12;97767.16;;;21.07;76.85
32456;BME280;18912;43.270;27.942;2022-11-20T07:46:37;97766.22;;;21.26;76.21
32456;BME280;18912;43.270;27.942;2022-11-20T07:49:03;97773.22;;;20.94;77.09
32456;BME280;18912;43.270;27.942;2022-11-20T07:51:28;97761.63;;;21.17;76.76
32456;BME280;18912;43.270;27.942;2022-11-20T07:53:54;97758.56;;;21.18;76.95
32456;BME280;18912;43.270;27.942;2022-11-20T07:56:20;97751.69;;;21.21;76.92
32456;BME280;18912;43.270;27.942;2022-11-20T07:58:45;97757.78;;;21.18;76.64
32456;BME280;18912;43.270;27.942;2022-11-20T08:01:10;97746.44;;;21.24;76.36
32456;BME280;18912;43.270;27.942;2022-11-20T08:03:36;97762.75;;;21.11;76.97
32456;BME280;18912;43.270;27.942;2022-11-20T08:06:04;97768.44;;;21.24;76.90
32456;BME280;18912;43.270;27.942;2022-11-20T08:08:30;97760.31;;;21.04;77.50
32456;BME280;18912;43.270;27.942;2022-11-20T08:10:58;97755.09;;;21.03;77.31
32456;BME280;18912;43.270;27.942;2022-11-20T08:13:44;97743.00;;;20.94;77.75
32456;BME280;18912;43.270;27.942;2022-11-20T08:16:28;97741.34;;;20.98;77.66
32456;BME280;18912;43.270;27.942;2022-11-20T08:18:54;97749.28;;;21.09;77.34
32456;BME280;18912;43.270;27.942;2022-11-20T08:21:20;97731.88;;;21.29;76.54
32456;BME280;18912;43.270;27.942;2022-11-20T08:23:45;97738.34;;;21.48;75.77
32456;BME280;18912;43.270;27.942;2022-11-20T08:26:11;97753.06;;;21.62;75.31
32456;BME280;18912;43.270;27.942;2022-11-20T08:28:36;97747.72;;;21.42;76.22
32456;BME280;18912;43.270;27.942;2022-11-20T08:31:02;97757.88;;;21.42;75.79
32456;BME280;18912;43.270;27.942;2022-11-20T08:33:29;97762.00;;;21.44;75.71
32456;BME280;18912;43.270;27.942;2022-11-20T08:36:02;97767.25;;;21.41;75.63
32456;BME280;18912;43.270;27.942;2022-11-20T08:38:28;97769.13;;;21.45;75.65
32456;BME280;18912;43.270;27.942;2022-11-20T08:40:58;97779.25;;;21.55;75.12
32456;BME280;18912;43.270;27.942;2022-11-20T08:43:42;97769.97;;;21.46;75.40
32456;BME280;18912;43.270;27.942;2022-11-20T08:46:07;97774.72;;;21.74;74.38
32456;BME280;18912;43.270;27.942;2022-11-20T08:48:33;97765.13;;;21.66;74.46
32456;BME280;18912;43.270;27.942;2022-11-20T08:50:59;97769.44;;;21.77;73.90
32456;BME280;18912;43.270;27.942;2022-11-20T08:53:25;97766.69;;;21.77;73.85
32456;BME280;18912;43.270;27.942;2022-11-20T08:55:50;97768.03;;;21.85;73.44
32456;BME280;18912;43.270;27.942;2022-11-20T08:58:16;97770.56;;;21.76;73.58
32456;BME280;18912;43.270;27.942;2022-11-20T09:00:41;97767.34;;;21.64;74.03
32456;BME280;18912;43.270;27.942;2022-11-20T09:03:07;97766.41;;;21.84;73.35
32456;BME280;18912;43.270;27.942;2022-11-20T09:05:32;97756.78;;;21.86;73.01
32456;BME280;18912;43.270;27.942;2022-11-20T09:07:58;97762.69;;;22.03;72.44
32456;BME280;18912;43.270;27.942;2022-11-20T09:10:24;97754.31;;;22.13;71.94
32456;BME280;18912;43.270;27.942;2022-11-20T09:12:49;97760.88;;;21.89;72.83
32456;BME280;18912;43.270;27.942;2022-11-20T09:15:17;97768.91;;;21.75;73.22
32456;BME280;18912;43.270;27.942;2022-11-20T09:17:42;97753.75;;;21.83;73.21
32456;BME280;18912;43.270;27.942;2022-11-20T09:20:08;97751.78;;;21.88;72.96
32456;BME280;18912;43.270;27.942;2022-11-20T09:22:33;97745.66;;;21.96;73.04
32456;BME280;18912;43.270;27.942;2022-11-20T09:24:59;97743.91;;;22.05;72.20
32456;BME280;18912;43.270;27.942;2022-11-20T09:27:24;97739.06;;;21.97;72.72
32456;BME280;18912;43.270;27.942;2022-11-20T09:29:50;97743.50;;;21.93;72.76
32456;BME280;18912;43.270;27.942;2022-11-20T09:32:15;97740.81;;;21.83;73.30
32456;BME280;18912;43.270;27.942;2022-11-20T09:34:41;97739.25;;;21.72;73.56
32456;BME280;18912;43.270;27.942;2022-11-20T09:37:06;97740.34;;;21.71;73.11
32456;BME280;18912;43.270;27.942;2022-11-20T09:39:32;97744.97;;;21.81;72.94
32456;BME280;18912;43.270;27.942;2022-11-20T09:42:11;97733.34;;;21.89;73.05
32456;BME280;18912;43.270;27.942;2022-11-20T09:47:23;97721.06;;;21.76;73.25
32456;BME280;18912;43.270;27.942;2022-11-20T09:53:04;97701.16;;;21.56;74.13
32456;BME280;18912;43.270;27.942;2022-11-20T09:55:35;97707.31;;;21.71;74.05
32456;BME280;18912;43.270;27.942;2022-11-20T10:00:56;97681.00;;;21.65;72.84
32456;BME280;18912;43.270;27.942;2022-11-20T10:04:02;97680.47;;;21.58;72.99
32456;BME280;18912;43.270;27.942;2022-11-20T10:06:34;97687.41;;;21.89;71.66
32456;BME280;18912;43.270;27.942;2022-11-20T10:14:26;97681.94;;;21.79;71.90
32456;BME280;18912;43.270;27.942;2022-11-20T10:25:19;97677.41;;;21.98;71.36
32456;BME280;18912;43.270;27.942;2022-11-20T10:30:59;97662.03;;;21.92;71.63
32456;BME280;18912;43.270;27.942;2022-11-20T10:33:27;97669.38;;;22.02;71.31
32456;BME280;18912;43.270;27.942;2022-11-20T10:38:54;97660.03;;;22.03;71.27
32456;BME280;18912;43.270;27.942;2022-11-20T10:41:28;97658.19;;;21.93;71.29
32456;BME280;18912;43.270;27.942;2022-11-20T10:44:22;97663.34;;;22.00;71.20
32456;BME280;18912;43.270;27.942;2022-11-20T10:47:15;97663.09;;;21.96;71.08
32456;BME280;18912;43.270;27.942;2022-11-20T10:49:41;97664.75;;;21.97;71.36
32456;BME280;18912;43.270;27.942;2022-11-20T10:52:20;97667.75;;;22.01;71.36
32456;BME280;18912;43.270;27.942;2022-11-20T10:57:55;97655.72;;;22.20;70.36
32456;BME280;18912;43.270;27.942;2022-11-20T11:00:22;97658.38;;;22.25;70.03
32456;BME280;18912;43.270;27.942;2022-11-20T11:02:52;97655.44;;;21.93;70.34
32456;BME280;18912;43.270;27.942;2022-11-20T11:05:31;97661.41;;;22.00;70.12
32456;BME280;18912;43.270;27.942;2022-11-20T11:07:59;97671.50;;;21.81;70.86
32456;BME280;18912;43.270;27.942;2022-11-20T11:13:22;97649.84;;;21.70;71.36
32456;BME280;18912;43.270;27.942;2022-11-20T11:15:49;97644.00;;;21.81;70.67
32456;BME280;18912;43.270;27.942;2022-11-20T11:18:30;97642.91;;;22.06;70.02
32456;BME280;18912;43.270;27.942;2022-11-20T11:20:59;97650.03;;;21.83;70.66
32456;BME280;18912;43.270;27.942;2022-11-20T11:25:59;97646.19;;;21.84;70.33
32456;BME280;18912;43.270;27.942;2022-11-20T11:28:26;97649.88;;;21.98;69.85
32456;BME280;18912;43.270;27.942;2022-11-20T11:30:53;97662.00;;;21.97;69.93
32456;BME280;18912;43.270;27.942;2022-11-20T11:33:31;97664.31;;;21.85;70.09
32456;BME280;18912;43.270;27.942;2022-11-20T11:36:04;97663.25;;;21.81;70.09
32456;BME280;18912;43.270;27.942;2022-11-20T11:38:42;97683.38;;;21.77;70.25
32456;BME280;18912;43.270;27.942;2022-11-20T11:41:31;97666.44;;;21.93;69.63
32456;BME280;18912;43.270;27.942;2022-11-20T11:44:21;97679.38;;;21.93;69.39
32456;BME280;18912;43.270;27.942;2022-11-20T11:47:10;97679.09;;;21.94;69.27
32456;BME280;18912;43.270;27.942;2022-11-20T11:49:37;97682.53;;;21.76;69.65
32456;BME280;18912;43.270;27.942;2022-11-20T11:52:21;97692.47;;;21.72;70.11
32456;BME280;18912;43.270;27.942;2022-11-20T11:54:53;97686.44;;;21.70;70.18
32456;BME280;18912;43.270;27.942;2022-11-20T12:00:13;97692.69;;;21.81;69.91
32456;BME280;18912;43.270;27.942;2022-11-20T12:15:56;97697.66;;;22.07;68.40
32456;BME280;18912;43.270;27.942;2022-11-20T12:18:22;97691.13;;;22.03;68.69
32456;BME280;18912;43.270;27.942;2022-11-20T12:23:30;97681.16;;;22.07;68.42
32456;BME280;18912;43.270;27.942;2022-11-20T12:26:05;97689.22;;;22.27;67.41
32456;BME280;18912;43.270;27.942;2022-11-20T12:34:27;97678.00;;;22.19;67.92
32456;BME280;18912;43.270;27.942;2022-11-20T12:39:41;97689.53;;;22.21;67.66
32456;BME280;18912;43.270;27.942;2022-11-20T12:45:32;97674.66;;;21.98;67.59
32456;BME280;18912;43.270;27.942;2022-11-20T12:48:23;97686.78;;;21.97;67.96
32456;BME280;18912;43.270;27.942;2022-11-20T12:54:03;97679.81;;;21.71;68.54
32456;BME280;18912;43.270;27.942;2022-11-20T13:01:42;97687.56;;;21.69;68.58
32456;BME280;18912;43.270;27.942;2022-11-20T13:06:41;97690.47;;;21.49;69.53
32456;BME280;18912;43.270;27.942;2022-11-20T13:09:15;97692.69;;;21.81;68.91
32456;BME280;18912;43.270;27.942;2022-11-20T13:19:31;97675.56;;;21.89;67.94
32456;BME280;18912;43.270;27.942;2022-11-20T13:21:57;97672.47;;;21.95;67.93
32456;BME280;18912;43.270;27.942;2022-11-20T13:24:26;97666.69;;;21.97;67.85
32456;BME280;18912;43.270;27.942;2022-11-20T13:29:43;97664.91;;;21.77;69.01
32456;BME280;18912;43.270;27.942;2022-11-20T13:32:18;97672.09;;;21.73;69.36
32456;BME280;18912;43.270;27.942;2022-11-20T13:35:11;97678.81;;;21.62;69.84
32456;BME280;18912;43.270;27.942;2022-11-20T13:37:37;97682.53;;;21.76;69.47
32456;BME280;18912;43.270;27.942;2022-11-20T13:40:13;97675.16;;;21.72;69.02
32456;BME280;18912;43.270;27.942;2022-11-20T13:45:11;97673.09;;;21.87;68.86
32456;BME280;18912;43.270;27.942;2022-11-20T13:47:50;97680.88;;;21.75;69.07
32456;BME280;18912;43.270;27.942;2022-11-20T13:50:16;97682.88;;;22.03;68.13
32456;BME280;18912;43.270;27.942;2022-11-20T13:55:54;97694.69;;;22.04;68.13
32456;BME280;18912;43.270;27.942;2022-11-20T13:58:48;97695.59;;;21.94;68.41
32456;BME280;18912;43.270;27.942;2022-11-20T14:01:23;97692.69;;;21.81;68.97
32456;BME280;18912;43.270;27.942;2022-11-20T14:03:50;97682.88;;;22.03;68.13
32456;BME280;18912;43.270;27.942;2022-11-20T14:06:31;97676.88;;;21.96;68.33
32456;BME280;18912;43.270;27.942;2022-11-20T14:08:58;97683.66;;;22.04;68.01
32456;BME280;18912;43.270;27.942;2022-11-20T14:11:29;97690.06;;;21.99;68.33
32456;BME280;18912;43.270;27.942;2022-11-20T14:13:56;97679.19;;;21.84;68.83
32456;BME280;18912;43.270;27.942;2022-11-20T14:16:23;97682.22;;;21.49;69.66
32456;BME280;18912;43.270;27.942;2022-11-20T14:18:50;97678.19;;;21.70;69.05
32456;BME280;18912;43.270;27.942;2022-11-20T14:21:27;97682.09;;;21.64;69.07
32456;BME280;18912;43.270;27.942;2022-11-20T14:24:03;97684.88;;;21.59;69.86
32456;BME280;18912;43.270;27.942;2022-11-20T14:26:29;97682.13;;;21.59;69.86
32456;BME280;18912;43.270;27.942;2022-11-20T14:28:55;97675.88;;;21.54;70.05
32456;BME280;18912;43.270;27.942;2022-11-20T14:31:25;97676.94;;;21.91;68.51
32456;BME280;18912;43.270;27.942;2022-11-20T14:33:54;97676.94;;;21.91;68.07
32456;BME280;18912;43.270;27.942;2022-11-20T14:36:22;97682.97;;;21.93;68.38
32456;BME280;18912;43.270;27.942;2022-11-20T14:38:50;97672.63;;;21.80;68.58